createdAt,value
2018-11-13T00:00:49.472Z,24.70
2018-11-13T00:03:18.555Z,22.60
2018-11-13T00:05:46.675Z,22.60
2018-11-13T00:08:14.802Z,26.00
2018-11-13T00:10:42.979Z,24.13
2018-11-13T00:13:11.149Z,20.30
2018-11-13T00:15:39.319Z,21.37
2018-11-13T00:18:07.469Z,22.60
2018-11-13T00:20:35.629Z,22.80
2018-11-13T00:23:03.785Z,23.33
2018-11-13T00:25:31.919Z,24.80
2018-11-13T00:28:00.116Z,23.87
2018-11-13T00:30:28.256Z,29.83
2018-11-13T00:32:56.403Z,27.23
2018-11-13T00:35:24.550Z,23.77
2018-11-13T00:37:52.836Z,23.97
2018-11-13T00:40:21.142Z,26.33
2018-11-13T00:42:50.041Z,23.30
2018-11-13T00:45:18.183Z,24.93
2018-11-13T00:47:46.291Z,23.70
2018-11-13T00:50:15.801Z,26.83
2018-11-13T00:52:44.507Z,25.97
2018-11-13T00:55:12.907Z,19.87
2018-11-13T00:57:42.163Z,23.13
2018-11-13T01:00:13.329Z,22.77
2018-11-13T01:02:41.725Z,25.93
2018-11-13T01:05:11.585Z,23.93
2018-11-13T01:07:40.451Z,22.33
2018-11-13T01:10:09.808Z,20.80
2018-11-13T01:12:37.953Z,19.77
2018-11-13T01:15:06.816Z,19.47
2018-11-13T01:17:34.871Z,18.57
2018-11-13T01:20:03.060Z,18.10
2018-11-13T01:22:31.248Z,21.60
2018-11-13T01:24:59.419Z,21.90
2018-11-13T01:27:27.730Z,20.70
2018-11-13T01:29:57.045Z,20.93
2018-11-13T01:32:26.699Z,19.30
2018-11-13T01:34:55.045Z,18.40
2018-11-13T01:37:23.754Z,19.53
2018-11-13T01:39:52.090Z,22.20
2018-11-13T01:42:20.217Z,22.83
2018-11-13T01:44:48.371Z,21.00
2018-11-13T01:47:16.580Z,21.57
2018-11-13T01:49:44.696Z,21.27
2018-11-13T01:52:12.823Z,20.90
2018-11-13T01:54:40.981Z,20.37
2018-11-13T01:57:09.134Z,20.37
2018-11-13T01:59:37.220Z,20.37
2018-11-13T02:02:05.711Z,18.47
2018-11-13T02:04:34.048Z,18.37
2018-11-13T02:07:02.241Z,15.73
2018-11-13T02:09:30.555Z,16.73
2018-11-13T02:11:58.745Z,20.13
2018-11-13T02:14:26.918Z,16.40
2018-11-13T02:16:55.474Z,17.03
2018-11-13T02:19:23.648Z,18.20
2018-11-13T02:21:51.846Z,20.90
2018-11-13T02:24:20.055Z,15.03
2018-11-13T02:26:48.230Z,14.40
2018-11-13T02:29:16.473Z,13.33
2018-11-13T02:31:44.694Z,11.77
2018-11-13T02:34:12.895Z,13.20
2018-11-13T02:36:41.061Z,10.67
2018-11-13T02:39:10.136Z,7.30
2018-11-13T02:41:38.291Z,5.33
2018-11-13T02:44:06.781Z,5.20
2018-11-13T02:46:34.965Z,5.57
2018-11-13T02:49:03.142Z,4.83
2018-11-13T02:51:31.542Z,4.53
2018-11-13T02:53:59.714Z,4.40
2018-11-13T02:56:27.862Z,4.07
2018-11-13T02:58:56.036Z,4.63
2018-11-13T03:01:24.248Z,3.50
2018-11-13T03:03:52.411Z,3.50
2018-11-13T03:06:20.772Z,3.50
2018-11-13T03:08:48.914Z,2.90
2018-11-13T03:11:17.138Z,3.17
2018-11-13T03:13:45.438Z,3.10
2018-11-13T03:16:13.526Z,2.80
2018-11-13T03:18:41.701Z,3.43
2018-11-13T03:21:09.878Z,2.60
2018-11-13T03:23:38.194Z,3.00
2018-11-13T03:26:06.707Z,2.87
2018-11-13T03:28:34.952Z,2.90
2018-11-13T03:31:03.296Z,2.63
2018-11-13T03:33:31.389Z,2.37
2018-11-13T03:35:59.539Z,2.60
2018-11-13T03:38:27.709Z,2.50
2018-11-13T03:40:55.883Z,3.03
2018-11-13T03:43:24.077Z,2.07
2018-11-13T03:45:52.208Z,2.50
2018-11-13T03:48:20.304Z,2.60
2018-11-13T03:50:48.475Z,2.17
2018-11-13T03:53:16.895Z,2.20
2018-11-13T03:55:44.998Z,2.83
2018-11-13T03:58:13.132Z,3.30
2018-11-13T04:00:41.293Z,3.40
2018-11-13T04:03:09.427Z,3.47
2018-11-13T04:05:37.571Z,3.43
2018-11-13T04:08:05.682Z,3.17
2018-11-13T04:10:33.831Z,3.37
2018-11-13T04:13:01.948Z,3.90
2018-11-13T04:15:30.073Z,4.97
2018-11-13T04:17:58.177Z,3.53
2018-11-13T04:20:26.300Z,3.17
2018-11-13T04:22:54.420Z,3.20
2018-11-13T04:25:22.559Z,2.70
2018-11-13T04:27:50.685Z,3.77
2018-11-13T04:30:19.499Z,2.80
2018-11-13T04:32:47.675Z,4.07
2018-11-13T04:35:16.899Z,3.43
2018-11-13T04:37:45.056Z,3.40
2018-11-13T04:40:14.468Z,4.10
2018-11-13T04:42:44.191Z,3.30
2018-11-13T04:45:13.708Z,3.40
2018-11-13T04:47:42.288Z,3.60
2018-11-13T04:50:12.086Z,3.47
2018-11-13T04:52:40.334Z,2.90
2018-11-13T04:55:09.182Z,3.13
2018-11-13T04:57:37.412Z,4.20
2018-11-13T05:00:07.834Z,3.20
2018-11-13T05:02:35.933Z,2.70
2018-11-13T05:05:04.483Z,3.80
2018-11-13T05:07:32.662Z,2.90
2018-11-13T05:10:00.820Z,2.77
2018-11-13T05:12:28.899Z,3.10
2018-11-13T05:14:57.010Z,3.27
2018-11-13T05:17:25.147Z,5.50
2018-11-13T05:19:53.446Z,3.73
2018-11-13T05:22:21.551Z,4.37
2018-11-13T05:24:49.687Z,3.53
2018-11-13T05:27:17.787Z,3.27
2018-11-13T05:29:45.902Z,3.00
2018-11-13T05:32:14.055Z,2.80
2018-11-13T05:34:42.419Z,2.90
2018-11-13T05:37:10.559Z,2.90
2018-11-13T05:39:38.687Z,3.17
2018-11-13T05:42:06.803Z,4.03
2018-11-13T05:44:34.918Z,2.70
2018-11-13T05:47:03.112Z,2.83
2018-11-13T05:49:31.207Z,2.40
2018-11-13T05:51:59.343Z,2.63
2018-11-13T05:54:27.459Z,3.00
2018-11-13T05:56:55.604Z,3.43
2018-11-13T05:59:23.739Z,3.80
2018-11-13T06:01:51.879Z,3.50
2018-11-13T06:04:20.163Z,3.93
2018-11-13T06:06:48.332Z,4.07
2018-11-13T06:09:16.459Z,3.80
2018-11-13T06:11:44.614Z,3.63
2018-11-13T06:14:12.797Z,4.10
2018-11-13T06:16:40.834Z,3.83
2018-11-13T06:19:09.016Z,3.60
2018-11-13T06:21:37.149Z,3.40
2018-11-13T06:24:05.558Z,3.30
2018-11-13T06:26:33.714Z,3.00
2018-11-13T06:29:01.855Z,3.37
2018-11-13T06:31:30.003Z,3.20
2018-11-13T06:33:58.143Z,3.10
2018-11-13T06:36:26.278Z,2.53
2018-11-13T06:38:54.461Z,2.23
2018-11-13T06:41:22.500Z,2.00
2018-11-13T06:43:50.635Z,2.30
2018-11-13T06:46:18.740Z,2.10
2018-11-13T06:48:47.268Z,2.17
2018-11-13T06:51:15.414Z,2.73
2018-11-13T06:53:55.218Z,1.70
2018-11-13T06:56:23.340Z,1.80
2018-11-13T06:58:51.504Z,2.10
2018-11-13T07:01:19.608Z,1.63
2018-11-13T07:03:47.763Z,1.97
2018-11-13T07:06:15.897Z,2.40
2018-11-13T07:08:44.017Z,1.93
2018-11-13T07:11:12.158Z,2.10
2018-11-13T07:13:40.271Z,2.13
2018-11-13T07:16:08.383Z,2.97
2018-11-13T07:18:36.596Z,1.77
2018-11-13T07:21:05.147Z,2.23
2018-11-13T07:23:33.286Z,1.73
2018-11-13T07:26:01.399Z,3.10
2018-11-13T07:28:29.531Z,2.20
2018-11-13T07:30:57.662Z,1.87
2018-11-13T07:33:26.035Z,3.37
2018-11-13T07:35:54.121Z,1.93
2018-11-13T07:38:22.229Z,1.80
2018-11-13T07:40:50.360Z,2.27
2018-11-13T07:43:18.471Z,2.53
2018-11-13T07:45:46.655Z,1.90
2018-11-13T07:48:14.827Z,2.60
2018-11-13T07:50:43.271Z,3.40
2018-11-13T07:53:11.395Z,2.23
2018-11-13T07:55:39.508Z,2.07
2018-11-13T07:58:07.663Z,1.80
2018-11-13T08:00:35.819Z,1.87
2018-11-13T08:03:15.401Z,1.77
2018-11-13T08:05:43.523Z,2.27
2018-11-13T08:08:11.866Z,1.67
2018-11-13T08:10:39.995Z,1.93
2018-11-13T08:13:08.228Z,2.17
2018-11-13T08:15:36.526Z,1.80
2018-11-13T08:18:04.674Z,1.30
2018-11-13T08:20:32.795Z,1.60
2018-11-13T08:23:00.942Z,2.30
2018-11-13T08:25:29.070Z,2.70
2018-11-13T08:27:57.189Z,4.40
2018-11-13T08:30:25.329Z,1.57
2018-11-13T08:32:53.439Z,4.43
2018-11-13T08:35:21.583Z,2.60
2018-11-13T08:37:49.710Z,2.60
2018-11-13T08:40:18.651Z,1.60
2018-11-13T08:42:47.226Z,2.27
2018-11-13T08:45:15.836Z,3.30
2018-11-13T08:47:44.155Z,2.50
2018-11-13T08:50:12.776Z,1.17
2018-11-13T08:52:41.683Z,2.53
2018-11-13T08:55:10.193Z,2.97
2018-11-13T08:57:38.287Z,2.60
2018-11-13T09:00:09.340Z,1.63
2018-11-13T09:02:37.853Z,2.00
2018-11-13T09:05:06.126Z,0.93
2018-11-13T09:07:34.372Z,2.13
2018-11-13T09:10:03.178Z,2.20
2018-11-13T09:12:31.554Z,3.23
2018-11-13T09:14:59.569Z,2.83
2018-11-13T09:17:27.687Z,2.93
2018-11-13T09:19:55.820Z,3.60
2018-11-13T09:22:23.968Z,2.27
2018-11-13T09:24:52.074Z,3.63
2018-11-13T09:27:20.207Z,2.77
2018-11-13T09:29:48.424Z,2.60
2018-11-13T09:32:16.520Z,3.50
2018-11-13T09:34:44.610Z,3.27
2018-11-13T09:37:12.919Z,3.73
2018-11-13T09:39:41.139Z,3.30
2018-11-13T09:42:09.290Z,5.03
2018-11-13T09:44:37.466Z,3.10
2018-11-13T09:47:05.928Z,4.37
2018-11-13T09:49:34.062Z,4.13
2018-11-13T09:52:02.184Z,4.30
2018-11-13T09:54:30.308Z,3.83
2018-11-13T09:56:58.433Z,4.97
2018-11-13T09:59:26.563Z,5.73
2018-11-13T10:01:55.333Z,4.93
2018-11-13T10:04:23.590Z,4.63
2018-11-13T10:06:51.133Z,3.47
2018-11-13T10:09:19.563Z,4.10
2018-11-13T10:11:47.662Z,4.07
2018-11-13T10:14:15.783Z,5.23
2018-11-13T10:16:43.907Z,3.87
2018-11-13T10:19:12.060Z,3.57
2018-11-13T10:21:40.196Z,3.07
2018-11-13T10:24:08.975Z,5.13
2018-11-13T10:26:37.108Z,4.10
2018-11-13T10:29:05.547Z,5.23
2018-11-13T10:31:33.655Z,5.10
2018-11-13T10:34:01.781Z,7.63
2018-11-13T10:36:29.882Z,2.40
2018-11-13T10:38:58.019Z,3.40
2018-11-13T10:41:26.171Z,4.13
2018-11-13T10:43:54.383Z,4.17
2018-11-13T10:46:22.498Z,2.83
2018-11-13T10:48:50.684Z,2.50
2018-11-13T10:51:18.765Z,2.90
2018-11-13T10:53:46.851Z,2.73
2018-11-13T10:56:15.000Z,4.53
2018-11-13T10:58:43.163Z,3.53
2018-11-13T11:01:17.086Z,4.90
2018-11-13T11:03:50.758Z,4.60
2018-11-13T11:06:18.898Z,3.97
2018-11-13T11:08:47.027Z,5.70
2018-11-13T11:11:15.219Z,6.47
2018-11-13T11:13:43.514Z,3.27
2018-11-13T11:16:11.567Z,3.80
2018-11-13T11:18:39.796Z,3.90
2018-11-13T11:21:07.882Z,3.23
2018-11-13T11:23:36.013Z,4.17
2018-11-13T11:26:04.095Z,2.30
2018-11-13T11:28:33.058Z,5.00
2018-11-13T11:31:01.284Z,5.37
2018-11-13T11:33:29.490Z,2.57
2018-11-13T11:35:57.602Z,3.73
2018-11-13T11:38:25.735Z,3.20
2018-11-13T11:40:54.075Z,3.93
2018-11-13T11:43:22.159Z,4.53
2018-11-13T11:45:50.256Z,4.40
2018-11-13T11:48:18.380Z,4.53
2018-11-13T11:50:46.490Z,3.77
2018-11-13T11:53:14.609Z,3.70
2018-11-13T11:55:42.714Z,6.50
2018-11-13T11:58:11.011Z,2.97
2018-11-13T12:00:39.144Z,4.67
2018-11-13T12:03:07.220Z,2.60
2018-11-13T12:05:35.412Z,4.80
2018-11-13T12:08:03.511Z,3.57
2018-11-13T12:10:31.622Z,2.87
2018-11-13T12:12:59.750Z,3.20
2018-11-13T12:15:27.867Z,4.20
2018-11-13T12:17:56.068Z,2.63
2018-11-13T12:20:24.350Z,3.20
2018-11-13T12:22:52.511Z,2.50
2018-11-13T12:25:20.921Z,2.77
2018-11-13T12:27:49.069Z,2.67
2018-11-13T12:30:19.549Z,4.27
2018-11-13T12:32:48.803Z,4.40
2018-11-13T12:35:17.914Z,6.40
2018-11-13T12:37:46.071Z,4.50
2018-11-13T12:40:16.175Z,6.63
2018-11-13T12:42:46.515Z,4.17
2018-11-13T12:45:13.423Z,3.47
2018-11-13T12:47:42.541Z,3.57
2018-11-13T12:50:11.661Z,5.07
2018-11-13T12:52:39.771Z,3.50
2018-11-13T12:55:11.298Z,3.80
2018-11-13T12:57:39.483Z,5.73
2018-11-13T13:00:13.159Z,5.63
2018-11-13T13:02:41.391Z,3.60
2018-11-13T13:05:09.762Z,4.70
2018-11-13T13:07:37.985Z,2.23
2018-11-13T13:10:09.473Z,2.87
2018-11-13T13:12:37.659Z,6.93
2018-11-13T13:15:08.496Z,6.50
2018-11-13T13:17:37.030Z,5.63
2018-11-13T13:20:07.320Z,3.30
2018-11-13T13:22:35.870Z,6.43
2018-11-13T13:25:04.179Z,4.00
2018-11-13T13:27:32.266Z,3.97
2018-11-13T13:30:00.380Z,4.23
2018-11-13T13:32:29.295Z,4.53
2018-11-13T13:34:57.498Z,4.23
2018-11-13T13:37:25.634Z,4.00
2018-11-13T13:39:54.013Z,4.93
2018-11-13T13:42:22.145Z,2.73
2018-11-13T13:44:50.292Z,5.17
2018-11-13T13:47:18.439Z,5.77
2018-11-13T13:49:46.629Z,3.97
2018-11-13T13:52:15.566Z,2.53
2018-11-13T13:54:43.747Z,4.73
2018-11-13T13:57:11.939Z,2.97
2018-11-13T13:59:40.094Z,3.90
2018-11-13T14:02:08.233Z,4.17
2018-11-13T14:04:36.331Z,4.53
2018-11-13T14:07:04.431Z,6.00
2018-11-13T14:09:36.059Z,4.50
2018-11-13T14:12:04.747Z,4.07
2018-11-13T14:14:33.025Z,2.73
2018-11-13T14:17:01.197Z,4.03
2018-11-13T14:19:29.381Z,4.43
2018-11-13T14:21:57.511Z,6.13
2018-11-13T14:24:25.746Z,5.67
2018-11-13T14:26:53.937Z,5.27
2018-11-13T14:29:22.068Z,3.17
2018-11-13T14:31:50.323Z,4.77
2018-11-13T14:34:18.427Z,6.23
2018-11-13T14:36:46.551Z,5.70
2018-11-13T14:39:14.736Z,5.37
2018-11-13T14:41:42.862Z,3.37
2018-11-13T14:44:11.074Z,4.90
2018-11-13T14:46:39.296Z,5.53
2018-11-13T14:49:07.391Z,3.80
2018-11-13T14:51:35.508Z,3.93
2018-11-13T14:54:03.668Z,4.83
2018-11-13T14:56:31.939Z,4.23
2018-11-13T14:59:00.059Z,4.27
2018-11-13T15:01:28.244Z,6.57
2018-11-13T15:03:56.403Z,5.10
2018-11-13T15:06:24.526Z,2.93
2018-11-13T15:08:52.708Z,8.60
2018-11-13T15:11:20.910Z,2.77
2018-11-13T15:13:49.067Z,6.87
2018-11-13T15:16:17.276Z,2.40
2018-11-13T15:18:45.428Z,4.07
2018-11-13T15:21:13.676Z,30.43
2018-11-13T15:23:41.953Z,3.53
2018-11-13T15:26:10.059Z,3.50
2018-11-13T15:28:38.848Z,3.60
2018-11-13T15:31:07.005Z,3.50
2018-11-13T15:33:35.099Z,5.77
2018-11-13T15:36:03.239Z,3.77
2018-11-13T15:38:31.335Z,3.30
2018-11-13T15:40:59.503Z,5.70
2018-11-13T15:43:27.647Z,3.20
2018-11-13T15:45:56.467Z,3.53
2018-11-13T15:48:24.689Z,5.20
2018-11-13T15:50:52.814Z,5.10
2018-11-13T15:53:21.015Z,4.37
2018-11-13T15:55:49.133Z,4.83
2018-11-13T15:58:17.279Z,4.77
2018-11-13T16:00:45.508Z,4.50
2018-11-13T16:03:16.951Z,7.97
2018-11-13T16:05:47.888Z,6.07
2018-11-13T16:08:15.999Z,3.73
2018-11-13T16:10:44.494Z,4.57
2018-11-13T16:13:12.692Z,3.53
2018-11-13T16:15:41.138Z,3.93
2018-11-13T16:18:17.208Z,4.27
2018-11-13T16:20:45.396Z,4.50
2018-11-13T16:23:13.513Z,5.47
2018-11-13T16:25:41.670Z,6.90
2018-11-13T16:28:09.786Z,4.90
2018-11-13T16:30:38.747Z,3.83
2018-11-13T16:33:07.004Z,6.73
2018-11-13T16:35:35.186Z,5.00
2018-11-13T16:38:04.773Z,4.10
2018-11-13T16:40:33.442Z,5.60
2018-11-13T16:43:01.743Z,7.10
2018-11-13T16:45:30.884Z,9.33
2018-11-13T16:47:59.580Z,5.90
2018-11-13T16:50:29.637Z,8.53
2018-11-13T16:52:58.239Z,6.50
2018-11-13T16:55:31.815Z,3.03
2018-11-13T16:58:01.561Z,5.63
2018-11-13T17:00:29.911Z,8.80
2018-11-13T17:02:58.155Z,5.00
2018-11-13T17:05:27.461Z,3.73
2018-11-13T17:07:55.515Z,4.67
2018-11-13T17:10:25.024Z,6.80
2018-11-13T17:12:53.443Z,5.17
2018-11-13T17:15:26.074Z,7.63
2018-11-13T17:17:55.432Z,5.40
2018-11-13T17:20:23.653Z,4.57
2018-11-13T17:22:52.196Z,8.83
2018-11-13T17:25:22.965Z,8.13
2018-11-13T17:27:52.050Z,5.77
2018-11-13T17:30:22.572Z,8.47
2018-11-13T17:32:51.431Z,9.03
2018-11-13T17:35:20.775Z,9.10
2018-11-13T17:37:49.729Z,6.17
2018-11-13T17:40:19.386Z,6.00
2018-11-13T17:42:48.422Z,6.63
2018-11-13T17:45:18.797Z,7.07
2018-11-13T17:47:47.660Z,7.17
2018-11-13T17:50:18.109Z,7.30
2018-11-13T17:52:47.175Z,7.93
2018-11-13T17:55:16.015Z,9.10
2018-11-13T17:57:45.453Z,9.77
2018-11-13T18:00:24.518Z,6.87
2018-11-13T18:02:52.882Z,8.53
2018-11-13T18:05:22.161Z,9.07
2018-11-13T18:07:51.051Z,10.63
2018-11-13T18:10:19.266Z,9.73
2018-11-13T18:12:47.439Z,8.97
2018-11-13T18:15:16.800Z,8.30
2018-11-13T18:17:45.383Z,10.40
2018-11-13T18:20:18.621Z,7.50
2018-11-13T18:22:48.009Z,8.67
2018-11-13T18:25:16.118Z,9.17
2018-11-13T18:27:48.679Z,7.07
2018-11-13T18:30:19.854Z,9.70
2018-11-13T18:32:48.344Z,6.47
2018-11-13T18:35:18.042Z,6.93
2018-11-13T18:37:46.732Z,6.57
2018-11-13T18:40:15.951Z,6.90
2018-11-13T18:42:45.284Z,6.03
2018-11-13T18:45:16.818Z,8.13
2018-11-13T18:47:45.012Z,11.67
2018-11-13T18:50:15.995Z,6.67
2018-11-13T18:52:44.219Z,9.73
2018-11-13T18:55:12.752Z,9.47
2018-11-13T18:57:41.541Z,7.50
2018-11-13T19:00:14.731Z,7.50
2018-11-13T19:02:43.062Z,6.23
2018-11-13T19:05:12.136Z,6.03
2018-11-13T19:07:40.579Z,8.07
2018-11-13T19:10:14.491Z,8.53
2018-11-13T19:12:42.613Z,7.73
2018-11-13T19:15:12.375Z,10.97
2018-11-13T19:17:40.536Z,7.30
2018-11-13T19:20:13.733Z,7.63
2018-11-13T19:22:41.908Z,7.90
2018-11-13T19:25:15.579Z,8.47
2018-11-13T19:27:44.855Z,7.17
2018-11-13T19:30:14.125Z,7.50
2018-11-13T19:32:42.448Z,7.97
2018-11-13T19:35:11.161Z,5.50
2018-11-13T19:37:39.223Z,9.27
2018-11-13T19:40:09.907Z,12.87
2018-11-13T19:42:38.003Z,6.80
2018-11-13T19:45:06.969Z,7.47
2018-11-13T19:47:35.095Z,10.20
2018-11-13T19:50:03.669Z,8.20
2018-11-13T19:52:31.773Z,7.30
2018-11-13T19:55:00.069Z,11.60
2018-11-13T19:57:28.412Z,6.73
2018-11-13T19:59:56.968Z,9.13
2018-11-13T20:02:25.205Z,7.10
2018-11-13T20:04:53.717Z,7.87
2018-11-13T20:07:21.899Z,7.83
2018-11-13T20:09:50.160Z,8.20
2018-11-13T20:12:18.658Z,7.47
2018-11-13T20:14:46.755Z,6.80
2018-11-13T20:17:14.923Z,7.40
2018-11-13T20:19:43.248Z,7.30
2018-11-13T20:22:11.437Z,8.57
2018-11-13T20:24:39.669Z,9.17
2018-11-13T20:27:07.972Z,8.63
2018-11-13T20:29:36.160Z,8.50
2018-11-13T20:32:04.503Z,7.73
2018-11-13T20:34:32.696Z,9.27
2018-11-13T20:37:00.900Z,9.77
2018-11-13T20:39:29.464Z,9.40
2018-11-13T20:41:57.575Z,10.77
2018-11-13T20:44:25.813Z,8.03
2018-11-13T20:46:53.893Z,9.50
2018-11-13T20:49:22.052Z,7.27
2018-11-13T20:51:50.143Z,7.33
2018-11-13T20:54:18.316Z,10.83
2018-11-13T20:56:46.422Z,7.80
2018-11-13T20:59:14.570Z,5.87
2018-11-13T21:01:42.700Z,6.80
2018-11-13T21:04:10.798Z,8.97
2018-11-13T21:06:39.007Z,9.10
2018-11-13T21:09:07.752Z,8.17
2018-11-13T21:11:35.868Z,5.80
2018-11-13T21:14:04.059Z,8.37
2018-11-13T21:16:32.241Z,7.30
2018-11-13T21:19:00.289Z,9.70
2018-11-13T21:21:28.455Z,7.57
2018-11-13T21:23:56.669Z,7.77
2018-11-13T21:26:24.754Z,7.70
2018-11-13T21:28:52.862Z,6.67
2018-11-13T21:31:21.007Z,8.60
2018-11-13T21:33:49.128Z,4.93
2018-11-13T21:36:17.379Z,8.23
2018-11-13T21:38:45.508Z,10.23
2018-11-13T21:41:13.631Z,7.83
2018-11-13T21:43:41.936Z,6.37
2018-11-13T21:46:09.931Z,8.07
2018-11-13T21:48:38.080Z,5.83
2018-11-13T21:51:06.216Z,9.23
2018-11-13T21:53:34.767Z,8.60
2018-11-13T21:56:02.886Z,6.87
2018-11-13T21:58:31.011Z,6.23
2018-11-13T22:00:59.184Z,8.87
2018-11-13T22:03:27.274Z,7.47
2018-11-13T22:05:55.450Z,5.77
2018-11-13T22:08:23.616Z,7.17
2018-11-13T22:10:51.752Z,7.90
2018-11-13T22:13:19.906Z,8.67
2018-11-13T22:15:48.013Z,9.83
2018-11-13T22:18:16.499Z,9.67
2018-11-13T22:20:44.616Z,7.27
2018-11-13T22:23:12.773Z,11.30
2018-11-13T22:25:40.923Z,7.97
2018-11-13T22:28:09.565Z,7.87
2018-11-13T22:30:37.263Z,7.30
2018-11-13T22:33:05.562Z,7.27
2018-11-13T22:35:33.656Z,7.57
2018-11-13T22:38:01.823Z,7.37
2018-11-13T22:40:29.958Z,10.83
2018-11-13T22:42:58.906Z,8.37
2018-11-13T22:45:28.027Z,8.80
2018-11-13T22:47:56.699Z,8.53
2018-11-13T22:50:26.214Z,8.07
2018-11-13T22:52:54.656Z,9.60
2018-11-13T22:55:23.071Z,6.93
2018-11-13T22:57:52.826Z,9.07
2018-11-13T23:00:21.928Z,6.47
2018-11-13T23:02:51.263Z,9.27
2018-11-13T23:05:19.747Z,8.87
2018-11-13T23:07:47.838Z,7.17
2018-11-13T23:10:16.737Z,10.67
2018-11-13T23:12:45.131Z,6.93
2018-11-13T23:15:14.508Z,10.27
2018-11-13T23:17:43.905Z,11.00
2018-11-13T23:20:13.768Z,10.40
2018-11-13T23:22:41.902Z,7.63
2018-11-13T23:25:12.367Z,8.33
2018-11-13T23:27:40.771Z,14.13
2018-11-13T23:30:12.532Z,11.00
2018-11-13T23:32:40.655Z,11.67
2018-11-13T23:35:10.254Z,9.57
2018-11-13T23:37:38.422Z,9.23
2018-11-13T23:40:09.227Z,8.58
2018-11-13T23:42:37.847Z,9.07
2018-11-13T23:45:06.317Z,10.00
2018-11-13T23:47:34.418Z,10.93
2018-11-13T23:50:02.738Z,12.00
2018-11-13T23:52:31.321Z,9.23
2018-11-13T23:54:59.496Z,7.73
2018-11-13T23:57:27.611Z,10.83
2018-11-13T23:59:55.771Z,6.73
